createdAt,value
2023-04-16T00:01:10.779Z,8.27
2023-04-16T00:03:43.551Z,8.03
2023-04-16T00:06:12.567Z,9.37
2023-04-16T00:08:45.765Z,9.50
2023-04-16T00:11:14.093Z,8.63
2023-04-16T00:13:42.370Z,7.90
2023-04-16T00:16:21.778Z,9.17
2023-04-16T00:18:59.111Z,7.30
2023-04-16T00:21:29.901Z,9.23
2023-04-16T00:23:59.913Z,9.17
2023-04-16T00:26:29.567Z,10.80
2023-04-16T00:29:00.233Z,9.87
2023-04-16T00:31:34.218Z,9.20
2023-04-16T00:34:22.036Z,11.00
2023-04-16T00:37:03.093Z,7.77
2023-04-16T00:39:31.555Z,8.67
2023-04-16T00:42:00.916Z,8.10
2023-04-16T00:44:36.459Z,8.70
2023-04-16T00:47:08.468Z,6.70
2023-04-16T00:49:38.321Z,7.93
2023-04-16T00:52:11.336Z,7.47
2023-04-16T00:54:44.610Z,9.73
2023-04-16T00:57:12.913Z,7.60
2023-04-16T00:59:44.415Z,8.80
2023-04-16T01:02:13.028Z,7.87
2023-04-16T01:04:43.193Z,7.37
2023-04-16T01:07:14.103Z,8.47
2023-04-16T01:09:56.404Z,8.37
2023-04-16T01:12:25.173Z,7.10
2023-04-16T01:14:56.547Z,7.50
2023-04-16T01:17:27.017Z,5.73
2023-04-16T01:20:00.966Z,6.97
2023-04-16T01:22:30.762Z,7.30
2023-04-16T01:24:58.992Z,7.43
2023-04-16T01:27:27.352Z,6.80
2023-04-16T01:29:56.732Z,6.00
2023-04-16T01:32:24.568Z,4.90
2023-04-16T01:34:54.460Z,6.40
2023-04-16T01:37:22.239Z,5.70
2023-04-16T01:39:54.960Z,5.97
2023-04-16T01:42:22.927Z,5.97
2023-04-16T01:44:50.736Z,6.37
2023-04-16T01:47:21.025Z,6.70
2023-04-16T01:49:53.636Z,6.80
2023-04-16T01:52:21.758Z,7.27
2023-04-16T01:54:51.523Z,7.90
2023-04-16T01:57:19.964Z,5.90
2023-04-16T01:59:48.101Z,7.97
2023-04-16T02:02:19.979Z,6.23
2023-04-16T02:04:48.110Z,7.13
2023-04-16T02:07:17.814Z,6.67
2023-04-16T02:09:51.938Z,6.70
2023-04-16T02:12:25.089Z,6.90
2023-04-16T02:14:53.092Z,6.33
2023-04-16T02:17:21.537Z,7.10
2023-04-16T02:19:53.503Z,6.50
2023-04-16T02:22:21.939Z,5.57
2023-04-16T02:24:51.460Z,5.03
2023-04-16T02:27:25.191Z,6.27
2023-04-16T02:29:54.748Z,5.80
2023-04-16T02:32:24.931Z,5.90
2023-04-16T02:34:58.915Z,6.33
2023-04-16T02:37:27.511Z,5.83
2023-04-16T02:39:57.918Z,6.90
2023-04-16T02:42:26.378Z,6.83
2023-04-16T02:45:05.908Z,6.70
2023-04-16T02:47:34.494Z,6.80
2023-04-16T02:50:02.418Z,8.00
2023-04-16T02:52:34.195Z,7.43
2023-04-16T02:55:08.419Z,6.93
2023-04-16T02:57:42.069Z,6.67
2023-04-16T03:00:14.286Z,8.27
2023-04-16T03:02:48.193Z,8.40
2023-04-16T03:05:19.447Z,8.53
2023-04-16T03:07:47.953Z,8.93
2023-04-16T03:10:16.252Z,7.33
2023-04-16T03:12:46.830Z,7.33
2023-04-16T03:15:16.530Z,8.87
2023-04-16T03:17:45.684Z,7.30
2023-04-16T03:20:15.078Z,8.57
2023-04-16T03:22:47.975Z,8.57
2023-04-16T03:25:18.880Z,8.23
2023-04-16T03:27:50.210Z,7.30
2023-04-16T03:30:38.089Z,7.33
2023-04-16T03:33:12.599Z,6.80
2023-04-16T03:35:41.035Z,6.40
2023-04-16T03:38:12.265Z,7.47
2023-04-16T03:40:46.240Z,7.80
2023-04-16T03:43:23.976Z,8.20
2023-04-16T03:45:59.405Z,7.63
2023-04-16T03:48:30.334Z,8.50
2023-04-16T03:51:06.219Z,6.73
2023-04-16T03:53:34.791Z,7.27
2023-04-16T03:56:06.713Z,7.73
2023-04-16T03:58:39.761Z,7.40
2023-04-16T04:01:12.298Z,5.97
2023-04-16T04:03:42.145Z,5.20
2023-04-16T04:06:11.987Z,5.77
2023-04-16T04:08:43.760Z,6.47
2023-04-16T04:11:15.284Z,6.20
2023-04-16T04:13:49.241Z,7.30
2023-04-16T04:16:19.356Z,8.53
2023-04-16T04:18:50.658Z,6.63
2023-04-16T04:21:22.540Z,7.10
2023-04-16T04:23:53.952Z,6.33
2023-04-16T04:26:25.297Z,6.90
2023-04-16T04:28:53.591Z,5.33
2023-04-16T04:31:23.392Z,6.30
2023-04-16T04:33:51.924Z,6.80
2023-04-16T04:36:20.281Z,7.13
2023-04-16T04:38:48.962Z,6.03
2023-04-16T04:41:20.071Z,6.50
2023-04-16T04:43:48.927Z,6.57
2023-04-16T04:46:17.021Z,7.00
2023-04-16T04:48:52.416Z,6.20
2023-04-16T04:51:20.535Z,7.40
2023-04-16T04:53:49.122Z,7.27
2023-04-16T04:56:20.787Z,8.50
2023-04-16T04:58:52.361Z,9.70
2023-04-16T05:01:21.029Z,7.30
2023-04-16T05:03:52.135Z,10.17
2023-04-16T05:06:28.339Z,12.27
2023-04-16T05:09:03.614Z,12.80
2023-04-16T05:11:33.200Z,13.37
2023-04-16T05:14:04.942Z,11.37
2023-04-16T05:16:33.641Z,11.53
2023-04-16T05:19:06.508Z,13.33
2023-04-16T05:21:36.278Z,11.07
2023-04-16T05:24:04.464Z,13.43
2023-04-16T05:26:33.479Z,10.37
2023-04-16T05:29:08.925Z,11.77
2023-04-16T05:31:38.762Z,12.33
2023-04-16T05:34:15.578Z,15.53
2023-04-16T05:36:44.606Z,15.10
2023-04-16T05:39:14.194Z,13.67
2023-04-16T05:41:44.242Z,13.73
2023-04-16T05:44:22.965Z,14.17
2023-04-16T05:46:52.648Z,12.70
2023-04-16T05:49:28.069Z,15.17
2023-04-16T05:52:00.978Z,15.30
2023-04-16T05:54:28.995Z,15.90
2023-04-16T05:56:57.379Z,12.73
2023-04-16T05:59:27.971Z,13.37
2023-04-16T06:01:55.906Z,13.17
2023-04-16T06:04:33.480Z,13.70
2023-04-16T06:07:07.977Z,14.03
2023-04-16T06:09:39.298Z,15.30
2023-04-16T06:12:09.771Z,15.10
2023-04-16T06:14:38.127Z,12.87
2023-04-16T06:17:06.329Z,14.30
2023-04-16T06:19:38.811Z,15.13
2023-04-16T06:22:08.989Z,16.03
2023-04-16T06:24:44.084Z,15.80
2023-04-16T06:27:15.014Z,14.93
2023-04-16T06:29:49.159Z,14.63
2023-04-16T06:32:19.524Z,14.50
2023-04-16T06:34:52.305Z,14.90
2023-04-16T06:37:24.459Z,16.43
2023-04-16T06:39:54.026Z,15.67
2023-04-16T06:42:23.963Z,14.10
2023-04-16T06:44:54.774Z,13.70
2023-04-16T06:47:26.118Z,15.70
2023-04-16T06:49:57.898Z,17.20
2023-04-16T06:52:39.132Z,16.23
2023-04-16T06:55:09.873Z,14.17
2023-04-16T06:57:38.371Z,13.40
2023-04-16T07:00:09.927Z,12.80
2023-04-16T07:02:44.489Z,13.27
2023-04-16T07:05:18.246Z,14.20
2023-04-16T07:07:47.700Z,13.50
2023-04-16T07:10:20.189Z,13.73
2023-04-16T07:12:58.643Z,13.37
2023-04-16T07:15:27.130Z,13.73
2023-04-16T07:17:57.743Z,12.10
2023-04-16T07:20:30.503Z,11.57
2023-04-16T07:23:03.257Z,13.53
2023-04-16T07:25:31.223Z,12.53
2023-04-16T07:28:00.852Z,13.27
2023-04-16T07:30:34.225Z,11.50
2023-04-16T07:33:02.804Z,11.50
2023-04-16T07:35:35.469Z,13.30
2023-04-16T07:38:03.852Z,11.87
2023-04-16T07:40:32.536Z,12.20
2023-04-16T07:43:00.994Z,12.53
2023-04-16T07:45:29.003Z,12.73
2023-04-16T07:48:07.717Z,12.77
2023-04-16T07:50:42.001Z,11.80
2023-04-16T07:53:13.560Z,13.80
2023-04-16T07:55:41.670Z,12.10
2023-04-16T07:58:10.018Z,12.43
2023-04-16T08:00:38.472Z,12.53
2023-04-16T08:03:09.363Z,12.57
2023-04-16T08:05:40.104Z,11.67
2023-04-16T08:08:08.957Z,11.37
2023-04-16T08:10:37.073Z,11.97
2023-04-16T08:13:07.186Z,11.40
2023-04-16T08:15:40.194Z,11.47
2023-04-16T08:18:15.920Z,10.00
2023-04-16T08:20:45.809Z,10.07
2023-04-16T08:23:17.276Z,11.37
2023-04-16T08:25:45.412Z,14.57
2023-04-16T08:28:13.687Z,11.53
2023-04-16T08:30:45.633Z,10.27
2023-04-16T08:33:16.902Z,13.33
2023-04-16T08:35:56.845Z,10.33
2023-04-16T08:38:27.824Z,10.73
2023-04-16T08:40:59.286Z,11.33
2023-04-16T08:43:31.061Z,9.30
2023-04-16T08:46:01.262Z,10.80
2023-04-16T08:48:31.203Z,10.63
2023-04-16T08:51:02.701Z,10.57
2023-04-16T08:53:36.102Z,9.80
2023-04-16T08:56:06.352Z,10.20
2023-04-16T08:58:37.568Z,10.57
2023-04-16T09:01:07.852Z,11.33
2023-04-16T09:03:39.723Z,8.80
2023-04-16T09:06:15.654Z,9.43
2023-04-16T09:08:56.903Z,9.70
2023-04-16T09:11:27.771Z,10.03
2023-04-16T09:13:58.546Z,10.80
2023-04-16T09:16:27.603Z,10.77
2023-04-16T09:18:58.030Z,10.17
2023-04-16T09:21:30.663Z,11.17
2023-04-16T09:24:02.266Z,11.87
2023-04-16T09:26:31.187Z,10.53
2023-04-16T09:29:04.567Z,10.90
2023-04-16T09:31:35.465Z,12.20
2023-04-16T09:34:10.964Z,13.07
2023-04-16T09:36:43.659Z,11.63
2023-04-16T09:39:20.545Z,9.83
2023-04-16T09:41:52.638Z,12.50
2023-04-16T09:44:24.010Z,11.20
2023-04-16T09:46:52.307Z,10.40
2023-04-16T09:49:22.020Z,11.00
2023-04-16T09:51:54.805Z,10.50
2023-04-16T09:54:27.831Z,11.20
2023-04-16T09:56:58.525Z,11.10
2023-04-16T09:59:27.204Z,11.53
2023-04-16T10:02:14.624Z,11.10
2023-04-16T10:04:48.660Z,10.00
2023-04-16T10:07:20.397Z,11.00
2023-04-16T10:09:49.876Z,10.30
2023-04-16T10:12:22.786Z,10.60
2023-04-16T10:14:51.089Z,9.63
2023-04-16T10:17:19.278Z,13.07
2023-04-16T10:19:51.641Z,10.73
2023-04-16T10:22:21.416Z,11.80
2023-04-16T10:24:50.963Z,10.50
2023-04-16T10:27:21.265Z,11.20
2023-04-16T10:29:54.336Z,10.20
2023-04-16T10:32:28.860Z,10.40
2023-04-16T10:34:59.198Z,9.37
2023-04-16T10:37:38.743Z,9.53
2023-04-16T10:40:25.048Z,10.20
2023-04-16T10:43:11.332Z,9.33
2023-04-16T10:45:39.855Z,8.77
2023-04-16T10:48:10.343Z,9.70
2023-04-16T10:50:39.820Z,9.77
2023-04-16T10:53:33.040Z,7.93
2023-04-16T10:56:14.823Z,10.20
2023-04-16T10:58:45.374Z,11.00
2023-04-16T11:01:21.897Z,8.13
2023-04-16T11:03:50.437Z,8.67
2023-04-16T11:06:26.307Z,8.73
2023-04-16T11:09:00.127Z,8.10
2023-04-16T11:11:28.937Z,8.20
2023-04-16T11:13:58.513Z,7.37
2023-04-16T11:16:32.732Z,6.83
2023-04-16T11:19:02.229Z,6.30
2023-04-16T11:21:38.285Z,6.13
2023-04-16T11:24:11.524Z,6.97
2023-04-16T11:26:41.786Z,8.03
2023-04-16T11:29:15.624Z,8.07
2023-04-16T11:31:43.901Z,6.03
2023-04-16T11:34:14.369Z,7.80
2023-04-16T11:36:46.372Z,6.70
2023-04-16T11:39:32.267Z,5.63
2023-04-16T11:42:03.499Z,6.73
2023-04-16T11:44:31.666Z,6.50
2023-04-16T11:47:09.770Z,6.97
2023-04-16T11:49:38.150Z,7.00
2023-04-16T11:52:08.091Z,6.00
2023-04-16T11:54:41.068Z,5.00
2023-04-16T11:57:11.702Z,4.17
2023-04-16T12:00:02.250Z,3.37
2023-04-16T12:02:43.748Z,3.90
2023-04-16T12:05:28.359Z,3.70
2023-04-16T12:08:02.125Z,4.00
2023-04-16T12:10:38.190Z,3.60
2023-04-16T12:13:19.712Z,4.43
2023-04-16T12:15:49.687Z,3.93
2023-04-16T12:18:18.276Z,4.90
2023-04-16T12:20:51.315Z,3.77
2023-04-16T12:23:28.364Z,4.73
2023-04-16T12:26:02.800Z,4.60
2023-04-16T12:28:40.323Z,5.07
2023-04-16T12:31:17.669Z,4.13
2023-04-16T12:33:49.219Z,3.90
2023-04-16T12:36:25.063Z,5.67
2023-04-16T12:38:52.871Z,5.40
2023-04-16T12:41:25.875Z,3.57
2023-04-16T12:43:54.212Z,4.87
2023-04-16T12:46:22.362Z,3.83
2023-04-16T12:48:51.338Z,4.70
2023-04-16T12:51:19.997Z,4.20
2023-04-16T12:53:53.121Z,3.90
2023-04-16T12:56:24.131Z,3.90
2023-04-16T12:58:56.612Z,4.10
2023-04-16T13:01:25.271Z,5.60
2023-04-16T13:03:56.254Z,5.00
2023-04-16T13:06:24.518Z,5.00
2023-04-16T13:08:57.905Z,5.53
2023-04-16T13:11:26.464Z,4.60
2023-04-16T13:14:00.056Z,4.30
2023-04-16T13:16:29.122Z,4.80
2023-04-16T13:18:58.342Z,4.87
2023-04-16T13:21:30.646Z,4.93
2023-04-16T13:24:01.647Z,6.27
2023-04-16T13:26:29.928Z,6.20
2023-04-16T13:29:19.647Z,5.27
2023-04-16T13:31:50.000Z,4.83
2023-04-16T13:34:24.454Z,6.73
2023-04-16T13:36:52.469Z,6.03
2023-04-16T13:39:20.781Z,5.03
2023-04-16T13:41:49.051Z,6.10
2023-04-16T13:44:19.110Z,6.53
2023-04-16T13:46:50.182Z,5.83
2023-04-16T13:49:22.738Z,6.20
2023-04-16T13:51:51.176Z,6.83
2023-04-16T13:54:19.414Z,6.43
2023-04-16T13:56:47.908Z,7.60
2023-04-16T13:59:17.055Z,7.30
2023-04-16T14:01:46.624Z,7.87
2023-04-16T14:04:16.584Z,6.23
2023-04-16T14:06:47.333Z,7.83
2023-04-16T14:09:17.647Z,7.87
2023-04-16T14:11:45.809Z,7.60
2023-04-16T14:14:16.999Z,7.37
2023-04-16T14:16:48.517Z,7.33
2023-04-16T14:19:16.815Z,6.77
2023-04-16T14:21:44.897Z,7.37
2023-04-16T14:24:19.691Z,6.27
2023-04-16T14:26:50.293Z,8.60
2023-04-16T14:29:24.391Z,7.67
2023-04-16T14:32:01.409Z,8.57
2023-04-16T14:34:33.951Z,8.23
2023-04-16T14:37:04.289Z,9.63
2023-04-16T14:39:32.992Z,8.90
2023-04-16T14:42:01.340Z,10.20
2023-04-16T14:44:32.445Z,9.50
2023-04-16T14:47:02.429Z,9.60
2023-04-16T14:49:31.326Z,9.90
2023-04-16T14:52:06.228Z,11.00
2023-04-16T14:54:34.968Z,10.20
2023-04-16T14:57:06.759Z,11.23
2023-04-16T14:59:38.062Z,11.67
2023-04-16T15:02:15.670Z,11.53
2023-04-16T15:04:46.687Z,10.90
2023-04-16T15:07:15.060Z,9.60
2023-04-16T15:09:45.116Z,12.40
2023-04-16T15:12:13.520Z,12.77
2023-04-16T15:14:44.059Z,11.87
2023-04-16T15:17:13.877Z,11.97
2023-04-16T15:19:43.204Z,12.77
2023-04-16T15:22:15.356Z,10.97
2023-04-16T15:24:46.925Z,10.00
2023-04-16T15:27:15.217Z,12.57
2023-04-16T15:29:43.729Z,11.53
2023-04-16T15:32:24.678Z,11.77
2023-04-16T15:34:53.498Z,10.60
2023-04-16T15:37:24.814Z,9.57
2023-04-16T15:39:52.949Z,10.97
2023-04-16T15:42:33.902Z,11.10
2023-04-16T15:45:02.112Z,9.17
2023-04-16T15:47:31.977Z,12.23
2023-04-16T15:50:05.879Z,11.80
2023-04-16T15:52:33.891Z,11.70
2023-04-16T15:55:08.140Z,13.60
2023-04-16T15:57:43.738Z,14.00
2023-04-16T16:00:17.852Z,13.33
2023-04-16T16:02:51.363Z,12.37
2023-04-16T16:05:22.026Z,13.30
2023-04-16T16:07:51.072Z,14.63
2023-04-16T16:10:20.491Z,13.70
2023-04-16T16:12:52.300Z,14.50
2023-04-16T16:15:23.596Z,14.33
2023-04-16T16:17:53.945Z,15.70
2023-04-16T16:20:23.752Z,15.37
2023-04-16T16:22:56.516Z,14.27
2023-04-16T16:25:24.595Z,15.73
2023-04-16T16:27:55.868Z,17.47
2023-04-16T16:30:29.758Z,16.17
2023-04-16T16:33:00.707Z,12.87
2023-04-16T16:35:28.847Z,15.73
2023-04-16T16:37:57.741Z,16.93
2023-04-16T16:40:29.072Z,14.93
2023-04-16T16:42:57.374Z,15.03
2023-04-16T16:45:28.975Z,15.17
2023-04-16T16:47:59.293Z,15.80
2023-04-16T16:50:30.163Z,18.60
2023-04-16T16:53:01.625Z,17.17
2023-04-16T16:55:35.136Z,18.17
2023-04-16T16:58:06.939Z,18.10
2023-04-16T17:00:35.403Z,17.27
2023-04-16T17:03:06.993Z,17.00
2023-04-16T17:05:35.567Z,18.90
2023-04-16T17:08:08.165Z,17.43
2023-04-16T17:10:36.969Z,17.07
2023-04-16T17:13:05.017Z,17.83
2023-04-16T17:15:33.900Z,19.03
2023-04-16T17:18:18.384Z,17.77
2023-04-16T17:20:50.147Z,18.60
2023-04-16T17:23:41.284Z,17.50
2023-04-16T17:26:07.347Z,17.30
2023-04-16T17:28:37.804Z,19.23
2023-04-16T17:31:08.470Z,18.93
2023-04-16T17:33:39.988Z,19.20
2023-04-16T17:36:27.995Z,19.23
2023-04-16T17:38:56.470Z,19.80
2023-04-16T17:41:33.733Z,17.17
2023-04-16T17:44:05.512Z,19.20
2023-04-16T17:46:34.081Z,17.50
2023-04-16T17:49:03.629Z,17.53
2023-04-16T17:51:36.015Z,16.63
2023-04-16T17:54:09.746Z,17.43
2023-04-16T17:56:38.090Z,17.03
2023-04-16T17:59:09.882Z,19.20
2023-04-16T18:01:50.069Z,16.17
2023-04-16T18:04:20.750Z,17.10
2023-04-16T18:06:53.724Z,18.83
2023-04-16T18:09:28.654Z,16.57
2023-04-16T18:11:57.913Z,15.17
2023-04-16T18:14:26.249Z,20.10
2023-04-16T18:16:54.398Z,14.00
2023-04-16T18:19:33.391Z,15.63
2023-04-16T18:22:03.693Z,17.50
2023-04-16T18:24:37.521Z,15.77
2023-04-16T18:27:08.577Z,17.87
2023-04-16T18:29:40.287Z,15.70
2023-04-16T18:32:11.743Z,17.47
2023-04-16T18:34:40.752Z,16.80
2023-04-16T18:37:14.755Z,16.83
2023-04-16T18:39:45.417Z,17.53
2023-04-16T18:42:15.494Z,17.50
2023-04-16T18:44:43.854Z,16.40
2023-04-16T18:47:15.662Z,17.50
2023-04-16T18:49:43.753Z,17.00
2023-04-16T18:52:15.745Z,17.80
2023-04-16T18:54:46.229Z,18.13
2023-04-16T18:57:16.566Z,19.47
2023-04-16T19:00:09.417Z,15.57
2023-04-16T19:02:37.869Z,16.60
2023-04-16T19:05:07.636Z,17.50
2023-04-16T19:07:40.174Z,17.77
2023-04-16T19:10:24.091Z,18.53
2023-04-16T19:12:52.693Z,18.23
2023-04-16T19:15:25.119Z,17.33
2023-04-16T19:17:53.781Z,15.93
2023-04-16T19:20:28.065Z,18.90
2023-04-16T19:23:00.063Z,17.53
2023-04-16T19:25:32.927Z,16.57
2023-04-16T19:28:04.069Z,18.27
2023-04-16T19:30:32.286Z,18.87
2023-04-16T19:33:00.824Z,17.43
2023-04-16T19:35:34.136Z,17.97
2023-04-16T19:38:05.059Z,17.40
2023-04-16T19:40:33.370Z,18.00
2023-04-16T19:43:11.307Z,16.50
2023-04-16T19:45:56.016Z,16.83
2023-04-16T19:48:24.699Z,17.00
2023-04-16T19:50:53.120Z,15.80
2023-04-16T19:53:37.127Z,19.00
2023-04-16T19:56:21.898Z,16.70
2023-04-16T19:58:52.936Z,18.17
2023-04-16T20:01:21.144Z,18.33
2023-04-16T20:03:51.770Z,18.57
2023-04-16T20:06:21.966Z,18.20
2023-04-16T20:08:53.940Z,15.73
2023-04-16T20:11:22.258Z,16.70
2023-04-16T20:13:51.792Z,15.13
2023-04-16T20:16:24.810Z,18.90
2023-04-16T20:18:55.031Z,16.10
2023-04-16T20:21:23.035Z,14.97
2023-04-16T20:23:53.831Z,15.47
2023-04-16T20:26:34.263Z,17.47
2023-04-16T20:29:07.350Z,16.63
2023-04-16T20:31:35.411Z,17.00
2023-04-16T20:34:05.118Z,17.73
2023-04-16T20:36:33.157Z,16.30
2023-04-16T20:39:08.348Z,17.20
2023-04-16T20:41:40.784Z,15.97
2023-04-16T20:44:18.307Z,18.07
2023-04-16T20:46:52.225Z,16.20
2023-04-16T20:49:24.934Z,15.40
2023-04-16T20:51:53.443Z,16.13
2023-04-16T20:54:29.432Z,16.10
2023-04-16T20:56:58.310Z,16.73
2023-04-16T20:59:34.759Z,16.40
2023-04-16T21:02:03.131Z,14.47
2023-04-16T21:04:36.304Z,16.50
2023-04-16T21:07:04.697Z,16.73
2023-04-16T21:09:37.222Z,17.13
2023-04-16T21:12:08.356Z,15.10
2023-04-16T21:14:36.527Z,15.10
2023-04-16T21:17:07.536Z,15.90
2023-04-16T21:19:38.796Z,14.93
2023-04-16T21:22:09.813Z,17.87
2023-04-16T21:24:39.451Z,14.80
2023-04-16T21:27:09.327Z,15.33
2023-04-16T21:29:38.333Z,14.50
2023-04-16T21:32:08.225Z,16.23
2023-04-16T21:34:39.416Z,15.57
2023-04-16T21:37:08.602Z,17.47
2023-04-16T21:39:44.622Z,13.20
2023-04-16T21:42:17.304Z,16.13
2023-04-16T21:44:47.972Z,14.73
2023-04-16T21:47:16.482Z,14.37
2023-04-16T21:49:52.787Z,15.40
2023-04-16T21:52:25.967Z,17.23
2023-04-16T21:54:55.205Z,16.13
2023-04-16T21:57:26.377Z,15.47
2023-04-16T21:59:57.089Z,15.80
2023-04-16T22:02:27.753Z,16.60
2023-04-16T22:04:57.091Z,17.87
2023-04-16T22:07:27.301Z,16.40
2023-04-16T22:09:56.811Z,16.73
2023-04-16T22:12:26.337Z,16.07
2023-04-16T22:15:02.426Z,16.60
2023-04-16T22:17:37.734Z,17.17
2023-04-16T22:20:09.618Z,16.57
2023-04-16T22:22:37.961Z,15.27
2023-04-16T22:25:08.371Z,14.87
2023-04-16T22:27:42.120Z,17.70
2023-04-16T22:30:14.125Z,15.93
2023-04-16T22:32:48.584Z,15.83
2023-04-16T22:35:18.332Z,15.67
2023-04-16T22:37:49.513Z,17.50
2023-04-16T22:40:19.615Z,14.80
2023-04-16T22:42:51.425Z,18.33
2023-04-16T22:45:30.604Z,16.80
2023-04-16T22:48:03.155Z,16.90
2023-04-16T22:50:32.739Z,15.30
2023-04-16T22:53:03.900Z,16.73
2023-04-16T22:55:36.770Z,15.90
2023-04-16T22:58:06.762Z,15.60
2023-04-16T23:00:36.708Z,16.83
2023-04-16T23:03:05.104Z,15.63
2023-04-16T23:05:34.862Z,17.60
2023-04-16T23:08:08.284Z,16.10
2023-04-16T23:10:40.995Z,16.10
2023-04-16T23:13:15.377Z,15.73
2023-04-16T23:15:44.116Z,16.13
2023-04-16T23:18:15.118Z,16.47
2023-04-16T23:20:46.828Z,16.03
2023-04-16T23:23:17.255Z,16.53
2023-04-16T23:25:49.500Z,17.57
2023-04-16T23:28:20.399Z,15.70
2023-04-16T23:30:50.549Z,16.27
2023-04-16T23:33:20.321Z,14.50
2023-04-16T23:35:51.270Z,14.73
2023-04-16T23:38:20.351Z,16.37
2023-04-16T23:40:49.577Z,16.13
2023-04-16T23:43:19.102Z,17.77
2023-04-16T23:45:48.703Z,15.90
2023-04-16T23:48:20.220Z,15.57
2023-04-16T23:50:48.122Z,15.37
2023-04-16T23:53:19.032Z,17.17
2023-04-16T23:55:47.277Z,17.43
2023-04-16T23:58:18.890Z,15.33
